Update 04.10.19: Almanach/History: Die WU Grafiken funktionieren wieder!!
Besuchen Sie den Menüpunkt "Almanach / History" WU-Grafiken um Wetterdaten über die Jahre zu vergleichen!
Die Daten stammen von meiner Wetterstation und wurden von Weatherunderground aufgezeichnet.

Rindlberg West Mehr Informationen Rindlberg West


Stuetzi - Rindlberg Ost Mehr Informationen Stuetzi - Rindlberg Ost


Regenradar Mehr Informationen rain snow radar


Sie finden meine Wetter-Infos auch auf:

Weather Underground

AWEKAS



METAR-Meldungen aus der Umgebung

Warning: A non-numeric value encountered in /home/.sites/50/site8222718/web/weather28/metar/metarDisplay.php on line 166 Warning: A non-numeric value encountered in /home/.sites/50/site8222718/web/weather28/metar/metarDisplay.php on line 166
   
LOWL - Linz
Aktualisierung: 10-04-2020 20:20
Klar  
Klar  
   Wind: WNW 3.7 km/h
Wind: WNW 3.7 km/h
Temperatur: 17°C
Taupunkt: 4°C
Luftfeuchte: 42%
Luftdruck: 1021 hPa
Wolken: Klar
Sichtbarkeit: Mehr als 10 km
Bewölkung: Klar
LOWL 101820Z AUTO 29002KT 9999 NCD 17/04 Q1021 NOSIG
LOWW - Vienna
Aktualisierung: 10-04-2020 20:20
Klar  
Klar  
   Wind: NO 11.1 km/h
Wind: NO 11.1 km/h
Temperatur: 15°C
Taupunkt: 3°C
Luftfeuchte: 45%
Luftdruck: 1021 hPa
Sichtbarkeit: Mehr als 10 km
Bewölkung: Klar
LOWW 101820Z 05006KT CAVOK 15/03 Q1021 NOSIG
 

Script entwickelt von  Saratoga-weather.org Angepasst für das Template von  Weerstation Leuven